createdAt,value
2019-02-03T00:00:49.695Z,27.20
2019-02-03T00:01:49.697Z,27.24
2019-02-03T00:02:49.681Z,27.18
2019-02-03T00:03:49.682Z,27.21
2019-02-03T00:04:49.673Z,27.18
2019-02-03T00:05:49.669Z,27.23
2019-02-03T00:06:49.652Z,27.24
2019-02-03T00:07:49.665Z,27.24
2019-02-03T00:08:49.666Z,27.23
2019-02-03T00:09:49.636Z,27.15
2019-02-03T00:10:49.663Z,27.18
2019-02-03T00:11:49.646Z,27.12
2019-02-03T00:12:49.635Z,27.09
2019-02-03T00:13:49.640Z,27.09
2019-02-03T00:14:49.624Z,27.03
2019-02-03T00:15:49.635Z,27.12
2019-02-03T00:16:49.629Z,27.01
2019-02-03T00:17:49.615Z,27.13
2019-02-03T00:18:49.626Z,27.13
2019-02-03T00:19:49.636Z,27.18
2019-02-03T00:20:49.611Z,27.02
2019-02-03T00:21:49.628Z,27.05
2019-02-03T00:22:49.645Z,26.98
2019-02-03T00:23:49.605Z,27.12
2019-02-03T00:24:49.788Z,27.06
2019-02-03T00:25:49.598Z,27.13
2019-02-03T00:26:49.596Z,27.13
2019-02-03T00:27:49.578Z,27.15
2019-02-03T00:28:49.562Z,27.08
2019-02-03T00:29:49.587Z,27.06
2019-02-03T00:30:49.593Z,26.97
2019-02-03T00:31:49.556Z,26.98
2019-02-03T00:32:51.561Z,26.94
2019-02-03T00:33:49.615Z,26.96
2019-02-03T00:34:49.576Z,26.94
2019-02-03T00:35:49.580Z,26.94
2019-02-03T00:36:49.566Z,26.94
2019-02-03T00:37:49.598Z,26.87
2019-02-03T00:38:49.618Z,26.86
2019-02-03T00:39:49.589Z,26.98
2019-02-03T00:40:49.623Z,27.01
2019-02-03T00:41:49.599Z,26.91
2019-02-03T00:42:49.527Z,26.96
2019-02-03T00:43:49.536Z,26.96
2019-02-03T00:44:49.515Z,26.97
2019-02-03T00:45:49.519Z,27.02
2019-02-03T00:46:49.559Z,26.93
2019-02-03T00:47:49.515Z,26.84
2019-02-03T00:48:49.550Z,26.75
2019-02-03T00:49:49.505Z,26.86
2019-02-03T00:50:49.509Z,26.86
2019-02-03T00:51:49.486Z,26.88
2019-02-03T00:52:49.502Z,26.86
2019-02-03T00:53:49.500Z,26.98
2019-02-03T00:54:49.482Z,26.81
2019-02-03T00:55:49.471Z,26.83
2019-02-03T00:56:49.472Z,26.81
2019-02-03T00:57:49.472Z,26.76
2019-02-03T00:58:49.467Z,26.72
2019-02-03T00:59:49.484Z,26.69
2019-02-03T01:00:49.484Z,26.78
2019-02-03T01:01:49.485Z,26.72
2019-02-03T01:02:49.466Z,26.69
2019-02-03T01:03:49.474Z,26.76
2019-02-03T01:04:49.474Z,26.68
2019-02-03T01:05:49.459Z,26.66
2019-02-03T01:06:49.497Z,26.78
2019-02-03T01:07:49.432Z,26.69
2019-02-03T01:08:49.449Z,26.72
2019-02-03T01:09:49.432Z,26.65
2019-02-03T01:10:49.439Z,26.68
2019-02-03T01:11:49.417Z,26.68
2019-02-03T01:12:49.412Z,26.64
2019-02-03T01:13:49.431Z,26.64
2019-02-03T01:14:49.405Z,26.57
2019-02-03T01:15:49.416Z,26.59
2019-02-03T01:16:49.408Z,26.46
2019-02-03T01:17:49.406Z,26.49
2019-02-03T01:18:49.398Z,26.56
2019-02-03T01:19:49.407Z,26.57
2019-02-03T01:20:49.401Z,26.57
2019-02-03T01:21:49.386Z,26.56
2019-02-03T01:22:49.375Z,26.57
2019-02-03T01:23:49.363Z,26.54
2019-02-03T01:24:49.384Z,26.56
2019-02-03T01:25:49.368Z,26.49
2019-02-03T01:26:49.356Z,26.54
2019-02-03T01:27:49.347Z,26.47
2019-02-03T01:28:49.364Z,26.42
2019-02-03T01:29:49.370Z,26.31
2019-02-03T01:30:49.342Z,26.44
2019-02-03T01:31:49.436Z,26.35
2019-02-03T01:32:49.346Z,26.32
2019-02-03T01:33:49.326Z,26.36
2019-02-03T01:34:49.317Z,26.31
2019-02-03T01:35:49.323Z,26.32
2019-02-03T01:36:49.330Z,26.32
2019-02-03T01:37:49.327Z,26.21
2019-02-03T01:38:49.316Z,26.19
2019-02-03T01:39:49.321Z,26.17
2019-02-03T01:40:49.293Z,26.12
2019-02-03T01:41:49.313Z,26.11
2019-02-03T01:42:49.296Z,26.06
2019-02-03T01:43:49.298Z,25.98
2019-02-03T01:44:49.287Z,26.03
2019-02-03T01:45:49.286Z,25.97
2019-02-03T01:46:49.285Z,26.04
2019-02-03T01:47:49.329Z,26.03
2019-02-03T01:48:49.257Z,26.03
2019-02-03T01:49:49.254Z,25.89
2019-02-03T01:50:49.255Z,25.90
2019-02-03T01:51:49.257Z,25.81
2019-02-03T01:52:49.239Z,25.89
2019-02-03T01:53:49.257Z,25.72
2019-02-03T01:54:49.255Z,25.78
2019-02-03T01:55:49.241Z,25.79
2019-02-03T01:56:49.221Z,25.81
2019-02-03T01:57:49.229Z,25.85
2019-02-03T01:58:49.219Z,25.72
2019-02-03T01:59:49.228Z,25.71
2019-02-03T02:00:49.200Z,25.76
2019-02-03T02:01:49.214Z,25.79
2019-02-03T02:02:49.219Z,25.78
2019-02-03T02:03:49.187Z,25.66
2019-02-03T02:04:49.193Z,25.72
2019-02-03T02:05:49.199Z,25.71
2019-02-03T02:06:49.202Z,25.57
2019-02-03T02:07:51.599Z,25.67
2019-02-03T02:08:49.191Z,25.67
2019-02-03T02:09:49.182Z,25.61
2019-02-03T02:10:49.180Z,25.66
2019-02-03T02:11:49.201Z,25.67
2019-02-03T02:12:49.190Z,25.72
2019-02-03T02:13:49.142Z,25.66
2019-02-03T02:14:49.195Z,25.76
2019-02-03T02:15:49.182Z,25.78
2019-02-03T02:16:49.148Z,25.82
2019-02-03T02:17:49.143Z,25.74
2019-02-03T02:18:49.132Z,25.79
2019-02-03T02:19:49.115Z,25.79
2019-02-03T02:20:49.117Z,25.83
2019-02-03T02:21:49.133Z,25.86
2019-02-03T02:22:49.113Z,25.78
2019-02-03T02:23:49.105Z,25.74
2019-02-03T02:24:49.096Z,25.76
2019-02-03T02:25:49.102Z,25.72
2019-02-03T02:26:49.078Z,25.83
2019-02-03T02:27:49.085Z,25.81
2019-02-03T02:28:49.106Z,25.83
2019-02-03T02:29:49.134Z,25.82
2019-02-03T02:30:49.063Z,25.75
2019-02-03T02:31:49.092Z,25.74
2019-02-03T02:32:49.198Z,25.79
2019-02-03T02:33:49.077Z,25.75
2019-02-03T02:34:49.047Z,25.83
2019-02-03T02:35:49.070Z,25.90
2019-02-03T02:36:49.053Z,25.86
2019-02-03T02:37:49.085Z,25.86
2019-02-03T02:38:49.048Z,25.75
2019-02-03T02:39:49.032Z,25.74
2019-02-03T02:40:49.046Z,25.74
2019-02-03T02:41:49.034Z,25.71
2019-02-03T02:42:49.060Z,25.71
2019-02-03T02:43:49.034Z,25.69
2019-02-03T02:44:49.018Z,25.64
2019-02-03T02:45:49.016Z,25.78
2019-02-03T02:46:49.004Z,25.81
2019-02-03T02:47:49.006Z,25.81
2019-02-03T02:48:49.005Z,25.74
2019-02-03T02:49:49.042Z,25.74
2019-02-03T02:50:48.996Z,25.64
2019-02-03T02:51:48.972Z,25.54
2019-02-03T02:52:48.973Z,25.54
2019-02-03T02:53:48.969Z,25.54
2019-02-03T02:54:48.984Z,25.56
2019-02-03T02:55:48.971Z,25.63
2019-02-03T02:56:48.948Z,25.66
2019-02-03T02:57:48.943Z,25.72
2019-02-03T02:58:48.963Z,25.71
2019-02-03T02:59:48.930Z,25.57
2019-02-03T03:00:48.947Z,25.49
2019-02-03T03:01:48.976Z,25.48
2019-02-03T03:02:48.939Z,25.41
2019-02-03T03:03:48.930Z,25.49
2019-02-03T03:04:48.925Z,25.31
2019-02-03T03:05:48.929Z,25.38
2019-02-03T03:06:48.917Z,25.34
2019-02-03T03:07:48.908Z,25.38
2019-02-03T03:08:48.899Z,25.36
2019-02-03T03:09:48.893Z,25.41
2019-02-03T03:10:48.907Z,25.30
2019-02-03T03:11:48.896Z,25.30
2019-02-03T03:12:48.866Z,25.26
2019-02-03T03:13:48.874Z,25.24
2019-02-03T03:14:48.875Z,25.24
2019-02-03T03:15:48.910Z,25.26
2019-02-03T03:16:48.864Z,25.27
2019-02-03T03:17:48.849Z,25.27
2019-02-03T03:18:48.837Z,25.22
2019-02-03T03:19:48.847Z,25.17
2019-02-03T03:20:48.880Z,25.14
2019-02-03T03:21:48.844Z,25.09
2019-02-03T03:22:48.873Z,25.08
2019-02-03T03:23:48.818Z,25.12
2019-02-03T03:24:48.867Z,25.12
2019-02-03T03:25:48.860Z,25.07
2019-02-03T03:26:48.814Z,25.09
2019-02-03T03:27:48.812Z,25.05
2019-02-03T03:28:48.799Z,25.19
2019-02-03T03:29:48.855Z,25.14
2019-02-03T03:30:48.806Z,25.12
2019-02-03T03:31:48.824Z,25.08
2019-02-03T03:32:48.786Z,25.09
2019-02-03T03:33:48.781Z,25.08
2019-02-03T03:34:48.783Z,25.08
2019-02-03T03:35:48.805Z,25.14
2019-02-03T03:36:48.744Z,25.11
2019-02-03T03:37:48.768Z,25.11
2019-02-03T03:38:48.804Z,25.12
2019-02-03T03:39:48.743Z,25.07
2019-02-03T03:40:48.743Z,25.17
2019-02-03T03:41:48.746Z,25.09
2019-02-03T03:42:48.726Z,25.17
2019-02-03T03:43:48.727Z,25.08
2019-02-03T03:44:48.712Z,25.02
2019-02-03T03:45:48.769Z,24.90
2019-02-03T03:46:48.716Z,24.92
2019-02-03T03:47:48.703Z,24.87
2019-02-03T03:48:48.914Z,24.84
2019-02-03T03:49:48.729Z,24.94
2019-02-03T03:50:48.686Z,24.97
2019-02-03T03:51:48.788Z,24.93
2019-02-03T03:52:48.680Z,24.97
2019-02-03T03:53:48.658Z,24.94
2019-02-03T03:54:48.664Z,24.99
2019-02-03T03:55:48.669Z,24.94
2019-02-03T03:56:48.651Z,24.87
2019-02-03T03:57:48.631Z,24.93
2019-02-03T03:58:48.640Z,24.94
2019-02-03T03:59:48.636Z,25.04
2019-02-03T04:00:48.621Z,25.07
2019-02-03T04:01:48.625Z,24.99
2019-02-03T04:02:48.665Z,24.93
2019-02-03T04:03:48.634Z,25.09
2019-02-03T04:04:48.654Z,24.98
2019-02-03T04:05:48.623Z,25.07
2019-02-03T04:06:48.624Z,25.11
2019-02-03T04:07:48.599Z,25.09
2019-02-03T04:08:48.597Z,25.17
2019-02-03T04:09:48.581Z,25.08
2019-02-03T04:10:48.563Z,24.98
2019-02-03T04:11:48.581Z,24.98
2019-02-03T04:12:48.553Z,25.05
2019-02-03T04:13:48.575Z,24.97
2019-02-03T04:14:48.567Z,25.02
2019-02-03T04:15:48.541Z,24.86
2019-02-03T04:16:48.559Z,24.92
2019-02-03T04:17:48.551Z,24.87
2019-02-03T04:18:48.547Z,24.92
2019-02-03T04:19:48.541Z,24.97
2019-02-03T04:20:48.534Z,24.90
2019-02-03T04:21:48.516Z,24.93
2019-02-03T04:22:48.525Z,24.90
2019-02-03T04:23:48.516Z,24.93
2019-02-03T04:24:48.528Z,24.92
2019-02-03T04:25:48.499Z,25.02
2019-02-03T04:26:48.547Z,24.92
2019-02-03T04:27:48.505Z,24.97
2019-02-03T04:28:48.537Z,24.93
2019-02-03T04:29:48.489Z,24.93
2019-02-03T04:30:48.486Z,24.90
2019-02-03T04:31:48.473Z,24.83
2019-02-03T04:32:48.467Z,24.68
2019-02-03T04:33:48.452Z,24.70
2019-02-03T04:34:48.564Z,24.77
2019-02-03T04:35:48.474Z,24.74
2019-02-03T04:36:48.441Z,24.68
2019-02-03T04:37:48.434Z,24.71
2019-02-03T04:38:57.607Z,24.70
2019-02-03T04:39:48.439Z,24.70
2019-02-03T04:40:48.441Z,24.79
2019-02-03T04:41:48.434Z,24.70
2019-02-03T04:42:48.408Z,24.67
2019-02-03T04:43:48.432Z,24.66
2019-02-03T04:44:48.419Z,24.63
2019-02-03T04:45:48.406Z,24.70
2019-02-03T04:46:48.402Z,24.80
2019-02-03T04:47:48.397Z,24.77
2019-02-03T04:48:48.386Z,24.74
2019-02-03T04:49:48.385Z,24.61
2019-02-03T04:50:48.382Z,24.64
2019-02-03T04:51:48.362Z,24.66
2019-02-03T04:52:48.371Z,24.66
2019-02-03T04:53:48.380Z,24.64
2019-02-03T04:54:48.345Z,24.66
2019-02-03T04:55:48.346Z,24.61
2019-02-03T04:56:48.351Z,24.75
2019-02-03T04:57:48.343Z,24.70
2019-02-03T04:58:48.335Z,24.82
2019-02-03T04:59:48.338Z,24.70
2019-02-03T05:00:48.305Z,24.79
2019-02-03T05:01:48.328Z,24.61
2019-02-03T05:02:48.315Z,24.68
2019-02-03T05:03:48.311Z,24.63
2019-02-03T05:04:48.309Z,24.63
2019-02-03T05:05:48.304Z,24.64
2019-02-03T05:06:48.303Z,24.67
2019-02-03T05:07:48.269Z,24.71
2019-02-03T05:08:48.303Z,24.63
2019-02-03T05:09:48.278Z,24.60
2019-02-03T05:10:48.373Z,24.66
2019-02-03T05:11:48.258Z,24.61
2019-02-03T05:12:48.275Z,24.64
2019-02-03T05:13:48.237Z,24.61
2019-02-03T05:14:48.243Z,24.64
2019-02-03T05:15:48.230Z,24.63
2019-02-03T05:16:48.242Z,24.64
2019-02-03T05:17:48.317Z,24.61
2019-02-03T05:18:48.237Z,24.61
2019-02-03T05:19:48.230Z,24.56
2019-02-03T05:20:48.217Z,24.66
2019-02-03T05:21:48.205Z,24.51
2019-02-03T05:22:48.195Z,24.53
2019-02-03T05:23:48.197Z,24.55
2019-02-03T05:24:48.227Z,24.60
2019-02-03T05:25:48.197Z,24.60
2019-02-03T05:26:48.188Z,24.52
2019-02-03T05:27:48.197Z,24.60
2019-02-03T05:28:48.173Z,24.63
2019-02-03T05:29:48.144Z,24.60
2019-02-03T05:30:48.172Z,24.63
2019-02-03T05:31:48.165Z,24.64
2019-02-03T05:32:48.149Z,24.63
2019-02-03T05:33:48.145Z,24.56
2019-02-03T05:34:48.145Z,24.59
2019-02-03T05:35:48.124Z,24.53
2019-02-03T05:36:48.134Z,24.55
2019-02-03T05:37:48.115Z,24.63
2019-02-03T05:38:48.128Z,24.63
2019-02-03T05:39:48.109Z,24.63
2019-02-03T05:40:48.119Z,24.61
2019-02-03T05:41:48.092Z,24.49
2019-02-03T05:42:48.074Z,24.49
2019-02-03T05:43:48.119Z,24.49
2019-02-03T05:44:48.082Z,24.48
2019-02-03T05:45:48.064Z,24.46
2019-02-03T05:46:48.069Z,24.44
2019-02-03T05:47:50.013Z,24.48
2019-02-03T05:48:48.060Z,24.37
2019-02-03T05:49:48.042Z,24.34
2019-02-03T05:50:48.060Z,24.31
2019-02-03T05:51:48.058Z,24.33
2019-02-03T05:52:48.051Z,24.31
2019-02-03T05:53:48.033Z,24.36
2019-02-03T05:54:48.008Z,24.33
2019-02-03T05:55:48.015Z,24.41
2019-02-03T05:56:48.033Z,24.36
2019-02-03T05:57:48.024Z,24.41
2019-02-03T05:58:48.015Z,24.41
2019-02-03T05:59:48.010Z,24.36
2019-02-03T06:00:48.001Z,24.36
2019-02-03T06:01:47.975Z,24.39
2019-02-03T06:02:47.976Z,24.34
2019-02-03T06:03:48.001Z,24.37
2019-02-03T06:04:47.989Z,24.46
2019-02-03T06:05:47.967Z,24.44
2019-02-03T06:06:47.960Z,24.45
2019-02-03T06:07:47.971Z,24.30
2019-02-03T06:08:47.965Z,24.34
2019-02-03T06:09:48.082Z,24.33
2019-02-03T06:10:47.930Z,24.36
2019-02-03T06:11:47.970Z,24.31
2019-02-03T06:12:47.933Z,24.27
2019-02-03T06:13:47.937Z,24.30
2019-02-03T06:14:47.959Z,24.31
2019-02-03T06:15:47.910Z,24.42
2019-02-03T06:16:47.898Z,24.37
2019-02-03T06:17:47.887Z,24.36
2019-02-03T06:18:47.882Z,24.39
2019-02-03T06:19:47.900Z,24.37
2019-02-03T06:20:47.878Z,24.39
2019-02-03T06:21:47.900Z,24.36
2019-02-03T06:22:47.875Z,24.34
2019-02-03T06:23:47.861Z,24.36
2019-02-03T06:24:47.909Z,24.44
2019-02-03T06:25:47.863Z,24.42
2019-02-03T06:26:47.832Z,24.48
2019-02-03T06:27:47.850Z,24.34
2019-02-03T06:28:47.849Z,24.36
2019-02-03T06:29:47.828Z,24.37
2019-02-03T06:30:47.835Z,24.36
2019-02-03T06:31:47.833Z,24.34
2019-02-03T06:32:47.828Z,24.34
2019-02-03T06:33:47.828Z,24.36
2019-02-03T06:34:47.855Z,24.34
2019-02-03T06:35:47.802Z,24.27
2019-02-03T06:36:47.802Z,24.29
2019-02-03T06:37:47.799Z,24.26
2019-02-03T06:38:47.793Z,24.19
2019-02-03T06:39:48.922Z,24.29
2019-02-03T06:40:47.772Z,24.29
2019-02-03T06:41:47.766Z,24.31
2019-02-03T06:42:47.750Z,24.34
2019-02-03T06:43:47.765Z,24.33
2019-02-03T06:44:47.752Z,24.37
2019-02-03T06:45:47.744Z,24.33
2019-02-03T06:46:47.792Z,24.29
2019-02-03T06:47:47.740Z,24.26
2019-02-03T06:48:47.775Z,24.27
2019-02-03T06:49:47.722Z,24.23
2019-02-03T06:50:47.706Z,24.24
2019-02-03T06:51:47.704Z,24.27
2019-02-03T06:52:47.722Z,24.27
2019-02-03T06:53:47.721Z,24.30
2019-02-03T06:54:47.695Z,24.26
2019-02-03T06:55:47.689Z,24.19
2019-02-03T06:56:47.698Z,24.24
2019-02-03T06:57:47.690Z,24.33
2019-02-03T06:58:47.725Z,24.26
2019-02-03T06:59:50.960Z,24.29
2019-02-03T07:00:47.653Z,24.21
2019-02-03T07:01:47.647Z,24.12
2019-02-03T07:02:47.637Z,24.15
2019-02-03T07:03:47.662Z,24.19
2019-02-03T07:04:47.650Z,24.05
2019-02-03T07:05:47.656Z,24.06
2019-02-03T07:06:47.617Z,24.02
2019-02-03T07:07:47.624Z,23.97
2019-02-03T07:08:47.631Z,24.05
2019-02-03T07:09:47.617Z,24.04
2019-02-03T07:10:47.606Z,24.04
2019-02-03T07:11:47.589Z,23.93
2019-02-03T07:12:47.599Z,23.96
2019-02-03T07:13:47.588Z,24.04
2019-02-03T07:14:47.586Z,23.93
2019-02-03T07:15:47.560Z,23.93
2019-02-03T07:16:47.576Z,24.02
2019-02-03T07:17:47.571Z,23.93
2019-02-03T07:18:47.569Z,23.92
2019-02-03T07:19:47.567Z,24.02
2019-02-03T07:20:47.545Z,23.93
2019-02-03T07:21:49.363Z,23.89
2019-02-03T07:22:47.530Z,24.04
2019-02-03T07:23:47.530Z,23.99
2019-02-03T07:24:47.532Z,23.92
2019-02-03T07:25:47.502Z,24.02
2019-02-03T07:26:47.502Z,24.06
2019-02-03T07:27:47.501Z,24.11
2019-02-03T07:28:47.490Z,24.00
2019-02-03T07:29:47.494Z,24.04
2019-02-03T07:30:47.527Z,24.18
2019-02-03T07:31:47.494Z,24.06
2019-02-03T07:32:47.472Z,24.18
2019-02-03T07:33:47.483Z,24.19
2019-02-03T07:34:47.459Z,24.23
2019-02-03T07:35:47.461Z,24.26
2019-02-03T07:36:47.466Z,24.15
2019-02-03T07:37:47.462Z,24.24
2019-02-03T07:38:47.426Z,24.12
2019-02-03T07:39:47.477Z,24.19
2019-02-03T07:40:47.430Z,24.15
2019-02-03T07:41:47.437Z,23.94
2019-02-03T07:42:47.411Z,24.15
2019-02-03T07:43:47.404Z,24.15
2019-02-03T07:44:47.401Z,24.06
2019-02-03T07:45:47.409Z,24.14
2019-02-03T07:46:47.402Z,24.11
2019-02-03T07:47:47.397Z,24.11
2019-02-03T07:48:47.391Z,24.11
2019-02-03T07:49:47.358Z,24.12
2019-02-03T07:50:47.371Z,24.15
2019-02-03T07:51:47.365Z,24.19
2019-02-03T07:52:47.369Z,24.15
2019-02-03T07:53:47.367Z,24.26
2019-02-03T07:54:47.365Z,24.16
2019-02-03T07:55:47.330Z,24.15
2019-02-03T07:56:47.329Z,24.21
2019-02-03T07:57:47.325Z,24.19
2019-02-03T07:58:47.330Z,24.16
2019-02-03T07:59:47.324Z,24.18
2019-02-03T08:00:47.315Z,24.14
2019-02-03T08:01:47.310Z,24.23
2019-02-03T08:02:47.309Z,24.26
2019-02-03T08:03:47.297Z,24.21
2019-02-03T08:04:47.300Z,24.24
2019-02-03T08:05:47.284Z,24.26
2019-02-03T08:06:47.269Z,24.19
2019-02-03T08:07:47.285Z,24.27
2019-02-03T08:08:47.270Z,24.36
2019-02-03T08:09:47.275Z,24.33
2019-02-03T08:10:47.267Z,24.33
2019-02-03T08:11:47.385Z,24.36
2019-02-03T08:12:47.249Z,24.37
2019-02-03T08:13:47.243Z,24.36
2019-02-03T08:14:47.290Z,24.30
2019-02-03T08:15:47.292Z,24.41
2019-02-03T08:16:47.327Z,24.45
2019-02-03T08:17:47.228Z,24.45
2019-02-03T08:18:47.256Z,24.45
2019-02-03T08:19:47.216Z,24.45
2019-02-03T08:20:47.209Z,24.46
2019-02-03T08:21:47.197Z,24.46
2019-02-03T08:22:47.203Z,24.51
2019-02-03T08:23:47.236Z,24.53
2019-02-03T08:24:47.197Z,24.52
2019-02-03T08:25:47.186Z,24.52
2019-02-03T08:26:47.170Z,24.59
2019-02-03T08:27:47.176Z,24.56
2019-02-03T08:28:47.169Z,24.52
2019-02-03T08:29:47.171Z,24.48
2019-02-03T08:30:47.158Z,24.41
2019-02-03T08:31:47.153Z,24.45
2019-02-03T08:32:47.142Z,24.41
2019-02-03T08:33:47.185Z,24.39
2019-02-03T08:34:47.138Z,24.45
2019-02-03T08:35:47.122Z,24.41
2019-02-03T08:36:47.122Z,24.46
2019-02-03T08:37:47.100Z,24.49
2019-02-03T08:38:47.107Z,24.51
2019-02-03T08:39:47.117Z,24.45
2019-02-03T08:40:47.156Z,24.44
2019-02-03T08:41:47.090Z,24.41
2019-02-03T08:42:47.079Z,24.48
2019-02-03T08:43:47.097Z,24.48
2019-02-03T08:44:47.072Z,24.55
2019-02-03T08:45:47.061Z,24.55
2019-02-03T08:46:47.066Z,24.60
2019-02-03T08:47:47.069Z,24.64
2019-02-03T08:48:47.048Z,24.52
2019-02-03T08:49:47.034Z,24.52
2019-02-03T08:50:47.047Z,24.60
2019-02-03T08:51:47.085Z,24.55
2019-02-03T08:52:47.033Z,24.53
2019-02-03T08:53:47.036Z,24.61
2019-02-03T08:54:57.990Z,24.53
2019-02-03T08:55:47.029Z,24.56
2019-02-03T08:56:47.027Z,24.56
2019-02-03T08:57:47.017Z,24.56
2019-02-03T08:58:47.006Z,24.59
2019-02-03T08:59:46.991Z,24.48
2019-02-03T09:00:47.000Z,24.52
2019-02-03T09:01:47.023Z,24.49
2019-02-03T09:02:46.992Z,24.42
2019-02-03T09:03:46.994Z,24.53
2019-02-03T09:04:46.960Z,24.49
2019-02-03T09:05:46.980Z,24.48
2019-02-03T09:06:47.004Z,24.44
2019-02-03T09:07:46.951Z,24.46
2019-02-03T09:08:46.961Z,24.45
2019-02-03T09:09:46.933Z,24.46
2019-02-03T09:10:48.603Z,24.55
2019-02-03T09:11:46.941Z,24.56
2019-02-03T09:12:46.923Z,24.53
2019-02-03T09:13:46.905Z,24.52
2019-02-03T09:14:46.908Z,24.56
2019-02-03T09:15:46.921Z,24.52
2019-02-03T09:16:46.895Z,24.51
2019-02-03T09:17:46.906Z,24.52
2019-02-03T09:18:46.897Z,24.46
2019-02-03T09:19:46.880Z,24.45
2019-02-03T09:20:48.216Z,24.44
2019-02-03T09:21:46.870Z,24.52
2019-02-03T09:22:46.861Z,24.52
2019-02-03T09:23:46.857Z,24.49
2019-02-03T09:24:46.856Z,24.44
2019-02-03T09:25:46.870Z,24.52
2019-02-03T09:26:46.856Z,24.48
2019-02-03T09:27:46.877Z,24.49
2019-02-03T09:28:46.854Z,24.59
2019-02-03T09:29:46.818Z,24.45
2019-02-03T09:30:46.832Z,24.51
2019-02-03T09:31:46.827Z,24.45
2019-02-03T09:32:46.828Z,24.45
2019-02-03T09:33:46.819Z,24.55
2019-02-03T09:34:46.805Z,24.48
2019-02-03T09:35:46.796Z,24.55
2019-02-03T09:36:46.806Z,24.64
2019-02-03T09:37:46.769Z,24.64
2019-02-03T09:38:46.764Z,24.59
2019-02-03T09:39:46.764Z,24.66
2019-02-03T09:40:46.785Z,24.64
2019-02-03T09:41:46.765Z,24.66
2019-02-03T09:42:47.170Z,24.64
2019-02-03T09:43:46.797Z,24.64
2019-02-03T09:44:46.752Z,24.60
2019-02-03T09:45:46.753Z,24.63
2019-02-03T09:46:46.742Z,24.64
2019-02-03T09:47:46.751Z,24.67
2019-02-03T09:48:46.708Z,24.75
2019-02-03T09:49:46.714Z,24.87
2019-02-03T09:50:46.725Z,24.89
2019-02-03T09:51:46.704Z,24.89
2019-02-03T09:52:46.720Z,24.97
2019-02-03T09:53:46.714Z,25.04
2019-02-03T09:54:46.712Z,25.07
2019-02-03T09:55:46.711Z,25.14
2019-02-03T09:56:46.684Z,25.14
2019-02-03T09:57:46.696Z,25.22
2019-02-03T09:58:46.682Z,25.19
2019-02-03T09:59:46.663Z,25.26
2019-02-03T10:00:46.710Z,25.34
2019-02-03T10:01:46.649Z,25.41
2019-02-03T10:02:46.643Z,25.30
2019-02-03T10:03:46.661Z,25.44
2019-02-03T10:04:46.666Z,25.39
2019-02-03T10:05:46.654Z,25.42
2019-02-03T10:06:46.790Z,25.36
2019-02-03T10:07:46.630Z,25.38
2019-02-03T10:08:46.606Z,25.44
2019-02-03T10:09:46.634Z,25.42
2019-02-03T10:10:46.625Z,25.41
2019-02-03T10:11:46.620Z,25.42
2019-02-03T10:12:46.615Z,25.45
2019-02-03T10:13:46.592Z,25.46
2019-02-03T10:14:46.585Z,25.51
2019-02-03T10:15:46.587Z,25.59
2019-02-03T10:16:47.647Z,25.54
2019-02-03T10:17:46.626Z,25.45
2019-02-03T10:18:46.593Z,25.51
2019-02-03T10:19:46.583Z,25.46
2019-02-03T10:20:46.566Z,25.51
2019-02-03T10:21:46.566Z,25.44
2019-02-03T10:22:46.569Z,25.42
2019-02-03T10:23:46.611Z,25.57
2019-02-03T10:24:46.560Z,25.53
2019-02-03T10:25:46.527Z,25.49
2019-02-03T10:26:46.549Z,25.54
2019-02-03T10:27:46.556Z,25.49
2019-02-03T10:28:46.782Z,25.67
2019-02-03T10:29:46.536Z,25.53
2019-02-03T10:30:46.509Z,25.53
2019-02-03T10:31:46.538Z,25.56
2019-02-03T10:32:46.507Z,25.48
2019-02-03T10:33:46.500Z,25.56
2019-02-03T10:34:46.498Z,25.42
2019-02-03T10:35:46.490Z,25.31
2019-02-03T10:36:46.499Z,25.23
2019-02-03T10:37:46.504Z,25.27
2019-02-03T10:38:46.478Z,25.34
2019-02-03T10:39:46.482Z,25.38
2019-02-03T10:40:46.480Z,25.34
2019-02-03T10:41:46.465Z,25.36
2019-02-03T10:42:46.456Z,25.38
2019-02-03T10:43:46.475Z,25.35
2019-02-03T10:44:46.438Z,25.45
2019-02-03T10:45:46.453Z,25.41
2019-02-03T10:46:46.427Z,25.45
2019-02-03T10:47:46.448Z,25.48
2019-02-03T10:48:46.429Z,25.57
2019-02-03T10:49:46.790Z,25.59
2019-02-03T10:50:46.444Z,25.56
2019-02-03T10:51:46.418Z,25.51
2019-02-03T10:52:46.425Z,25.53
2019-02-03T10:53:46.403Z,25.44
2019-02-03T10:54:46.420Z,25.39
2019-02-03T10:55:46.395Z,25.34
2019-02-03T10:56:46.382Z,25.46
2019-02-03T10:57:46.427Z,25.41
2019-02-03T10:58:46.401Z,25.44
2019-02-03T10:59:46.392Z,25.45
2019-02-03T11:00:46.392Z,25.44
2019-02-03T11:01:46.379Z,25.45
2019-02-03T11:02:46.376Z,25.41
2019-02-03T11:03:46.372Z,25.31
2019-02-03T11:04:46.359Z,25.46
2019-02-03T11:05:46.340Z,25.41
2019-02-03T11:06:46.391Z,25.49
2019-02-03T11:07:46.348Z,25.48
2019-02-03T11:08:46.326Z,25.51
2019-02-03T11:09:46.333Z,25.51
2019-02-03T11:10:46.328Z,25.49
2019-02-03T11:11:46.321Z,25.46
2019-02-03T11:12:46.321Z,25.42
2019-02-03T11:13:46.327Z,25.51
2019-02-03T11:14:46.316Z,25.53
2019-02-03T11:15:46.299Z,25.57
2019-02-03T11:16:46.284Z,25.49
2019-02-03T11:17:46.291Z,25.64
2019-02-03T11:18:46.357Z,25.66
2019-02-03T11:19:46.285Z,25.67
2019-02-03T11:20:46.281Z,25.67
2019-02-03T11:21:46.286Z,25.63
2019-02-03T11:22:46.283Z,25.67
2019-02-03T11:23:46.271Z,25.56
2019-02-03T11:24:46.263Z,25.67
2019-02-03T11:25:46.273Z,25.64
2019-02-03T11:26:46.244Z,25.81
2019-02-03T11:27:46.255Z,25.76
2019-02-03T11:28:46.267Z,25.91
2019-02-03T11:29:46.241Z,25.86
2019-02-03T11:30:46.243Z,25.94
2019-02-03T11:31:46.219Z,26.00
2019-02-03T11:32:46.236Z,26.00
2019-02-03T11:33:46.212Z,26.06
2019-02-03T11:34:46.250Z,26.01
2019-02-03T11:35:46.218Z,26.00
2019-02-03T11:36:46.218Z,26.06
2019-02-03T11:37:46.209Z,26.20
2019-02-03T11:38:46.189Z,26.28
2019-02-03T11:39:46.207Z,26.29
2019-02-03T11:40:46.179Z,26.28
2019-02-03T11:41:49.101Z,26.32
2019-02-03T11:42:46.309Z,26.39
2019-02-03T11:43:46.168Z,26.42
2019-02-03T11:44:46.157Z,26.44
2019-02-03T11:45:46.160Z,26.39
2019-02-03T11:46:46.177Z,26.36
2019-02-03T11:47:46.167Z,26.59
2019-02-03T11:48:46.153Z,26.53
2019-02-03T11:49:46.146Z,26.51
2019-02-03T11:50:46.139Z,26.38
2019-02-03T11:51:46.139Z,26.35
2019-02-03T11:52:46.133Z,26.35
2019-02-03T11:53:46.137Z,26.39
2019-02-03T11:54:46.126Z,26.38
2019-02-03T11:55:46.160Z,26.51
2019-02-03T11:56:46.139Z,26.53
2019-02-03T11:57:46.112Z,26.56
2019-02-03T11:58:46.110Z,26.50
2019-02-03T11:59:46.093Z,26.51
2019-02-03T12:00:46.094Z,26.57
2019-02-03T12:01:46.103Z,26.65
2019-02-03T12:02:46.109Z,26.72
2019-02-03T12:03:46.094Z,26.64
2019-02-03T12:04:46.089Z,26.64
2019-02-03T12:05:46.080Z,26.66
2019-02-03T12:06:46.076Z,26.69
2019-02-03T12:07:46.066Z,26.84
2019-02-03T12:08:46.080Z,26.83
2019-02-03T12:09:46.065Z,26.78
2019-02-03T12:10:46.104Z,26.96
2019-02-03T12:11:46.093Z,27.01
2019-02-03T12:12:46.053Z,27.06
2019-02-03T12:13:46.049Z,27.09
2019-02-03T12:14:46.045Z,27.24
2019-02-03T12:15:47.943Z,27.28
2019-02-03T12:16:46.038Z,27.43
2019-02-03T12:17:46.033Z,27.43
2019-02-03T12:18:46.025Z,27.45
2019-02-03T12:19:46.034Z,27.63
2019-02-03T12:20:46.041Z,27.59
2019-02-03T12:21:46.031Z,27.61
2019-02-03T12:22:46.026Z,27.61
2019-02-03T12:23:46.018Z,27.61
2019-02-03T12:24:45.991Z,27.61
2019-02-03T12:25:46.022Z,27.59
2019-02-03T12:26:45.996Z,27.78
2019-02-03T12:27:46.002Z,27.80
2019-02-03T12:28:45.993Z,27.91
2019-02-03T12:29:45.993Z,27.90
2019-02-03T12:30:46.017Z,27.93
2019-02-03T12:31:45.985Z,27.99
2019-02-03T12:32:46.028Z,28.08
2019-02-03T12:33:45.980Z,28.01
2019-02-03T12:34:45.985Z,28.02
2019-02-03T12:35:45.988Z,28.23
2019-02-03T12:36:45.980Z,28.35
2019-02-03T12:37:45.957Z,28.46
2019-02-03T12:38:46.007Z,28.57
2019-02-03T12:39:45.978Z,28.70
2019-02-03T12:40:45.967Z,28.87
2019-02-03T12:41:48.017Z,28.97
2019-02-03T12:42:45.957Z,28.76
2019-02-03T12:43:45.955Z,29.11
2019-02-03T12:44:45.999Z,29.17
2019-02-03T12:45:45.963Z,29.52
2019-02-03T12:46:45.995Z,29.67
2019-02-03T12:47:45.945Z,29.89
2019-02-03T12:48:45.948Z,29.91
2019-02-03T12:49:45.928Z,30.01
2019-02-03T12:50:45.943Z,30.30
2019-02-03T12:51:45.931Z,30.37
2019-02-03T12:52:45.921Z,30.42